createdAt,value
2023-02-17T13:17:38.894Z,97339.28
2023-02-17T13:18:43.669Z,97349.88
2023-02-17T13:19:45.219Z,97345.97
2023-02-17T13:20:56.222Z,97342.63
2023-02-17T13:22:02.178Z,97336.59
2023-02-17T13:23:07.341Z,97336.03
2023-02-17T13:24:30.225Z,97341.16
2023-02-17T13:25:37.362Z,97345.09
2023-02-17T13:26:40.788Z,97337.94
2023-02-17T13:27:42.153Z,97340.53
2023-02-17T13:28:44.799Z,97330.75
2023-02-17T13:29:46.400Z,97342.84
2023-02-17T13:30:52.324Z,97334.81
2023-02-17T13:32:00.269Z,97334.47
2023-02-17T13:33:22.063Z,97335.63
2023-02-17T13:34:38.543Z,97331.88
2023-02-17T13:35:41.500Z,97341.69
2023-02-17T13:36:43.028Z,97344.66
2023-02-17T13:37:46.348Z,97355.59
2023-02-17T13:38:57.008Z,97338.88
2023-02-17T13:39:59.990Z,97339.00
2023-02-17T13:41:05.844Z,97334.13
2023-02-17T13:42:33.214Z,97330.13
2023-02-17T13:43:41.923Z,97325.13
2023-02-17T13:44:44.728Z,97337.03
2023-02-17T13:46:03.831Z,97333.44
2023-02-17T13:47:21.269Z,97338.59
2023-02-17T13:48:26.717Z,97317.63
2023-02-17T13:49:33.062Z,97332.81
2023-02-17T13:50:36.142Z,97331.22
2023-02-17T13:51:37.514Z,97337.25
2023-02-17T13:52:43.407Z,97340.78
2023-02-17T13:53:50.095Z,97325.63
2023-02-17T13:54:59.659Z,97335.91
2023-02-17T13:56:06.498Z,97335.06
2023-02-17T13:57:22.484Z,97341.78
2023-02-17T13:58:29.954Z,97335.41
2023-02-17T13:59:31.484Z,97332.41
2023-02-17T14:00:32.999Z,97325.00
2023-02-17T14:01:38.015Z,97332.69
2023-02-17T14:02:48.686Z,97332.41
2023-02-17T14:03:52.818Z,97325.97
2023-02-17T14:04:55.078Z,97325.69
2023-02-17T14:05:59.279Z,97333.41
2023-02-17T14:07:04.389Z,97321.44
2023-02-17T14:08:27.482Z,97333.44
2023-02-17T14:09:31.887Z,97334.34
2023-02-17T14:10:33.750Z,97338.16
2023-02-17T14:11:35.955Z,97338.19
2023-02-17T14:12:37.501Z,97320.84
2023-02-17T14:13:42.568Z,97332.72
2023-02-17T14:14:44.091Z,97320.28
2023-02-17T14:15:57.598Z,97322.78
2023-02-17T14:17:08.990Z,97320.09
2023-02-17T14:18:15.014Z,97321.09
2023-02-17T14:19:19.227Z,97327.66
2023-02-17T14:20:32.796Z,97311.59
2023-02-17T14:21:39.131Z,97322.66
2023-02-17T14:22:40.511Z,97318.78
2023-02-17T14:23:52.130Z,97320.50
2023-02-17T14:25:07.212Z,97309.22
2023-02-17T14:26:14.491Z,97316.91
2023-02-17T14:27:15.892Z,97321.94
2023-02-17T14:28:18.825Z,97320.66
2023-02-17T14:29:20.243Z,97328.09
2023-02-17T14:30:37.412Z,97328.09
2023-02-17T14:31:39.068Z,97330.25
2023-02-17T14:32:40.694Z,97322.34
2023-02-17T14:34:01.490Z,97328.25
2023-02-17T14:35:11.997Z,97337.28
2023-02-17T14:36:13.566Z,97325.44
2023-02-17T14:37:22.956Z,97325.19
2023-02-17T14:38:37.429Z,97322.38
2023-02-17T14:39:38.884Z,97323.94
2023-02-17T14:40:40.381Z,97319.47
2023-02-17T14:41:42.279Z,97327.88
2023-02-17T14:42:44.943Z,97320.88
2023-02-17T14:43:46.874Z,97315.78
2023-02-17T14:44:48.258Z,97314.72
2023-02-17T14:45:50.383Z,97306.19
2023-02-17T14:46:51.814Z,97311.34
2023-02-17T14:47:53.175Z,97318.88
2023-02-17T14:48:54.713Z,97319.22
2023-02-17T14:49:56.210Z,97331.28
2023-02-17T14:50:58.006Z,97315.56
2023-02-17T14:51:59.410Z,97312.22
2023-02-17T14:53:00.920Z,97317.72
2023-02-17T14:54:16.374Z,97321.50
2023-02-17T14:55:30.830Z,97322.59
2023-02-17T14:56:36.384Z,97325.75
2023-02-17T14:57:37.881Z,97323.59
2023-02-17T14:58:39.276Z,97325.19
2023-02-17T14:59:41.713Z,97291.50
2023-02-17T15:00:43.279Z,97329.81
2023-02-17T15:01:45.020Z,97326.41
2023-02-17T15:02:46.674Z,97319.53
2023-02-17T15:03:48.738Z,97317.81
2023-02-17T15:04:50.237Z,97328.63
2023-02-17T15:05:52.822Z,97318.22
2023-02-17T15:06:54.794Z,97327.47
2023-02-17T15:07:56.236Z,97321.31
2023-02-17T15:08:57.599Z,97314.63
2023-02-17T15:09:59.108Z,97322.13
2023-02-17T15:11:01.514Z,97312.03
2023-02-17T15:12:05.741Z,97304.34
2023-02-17T15:13:09.413Z,97304.56
2023-02-17T15:14:16.720Z,97304.84
2023-02-17T15:15:18.509Z,97293.56
2023-02-17T15:16:19.983Z,97300.22
2023-02-17T15:17:21.488Z,97305.00
2023-02-17T15:18:23.167Z,97299.38
2023-02-17T15:19:24.613Z,97304.84
2023-02-17T15:20:25.965Z,97306.47
2023-02-17T15:21:30.861Z,97310.03
2023-02-17T15:22:33.065Z,97303.25
2023-02-17T15:23:35.041Z,97307.28
2023-02-17T15:24:36.541Z,97310.03
2023-02-17T15:25:37.967Z,97298.34
2023-02-17T15:26:39.359Z,97298.97
2023-02-17T15:27:41.202Z,97308.41
2023-02-17T15:28:42.700Z,97259.13
2023-02-17T15:29:44.158Z,97272.53
2023-02-17T15:30:52.986Z,97288.06
2023-02-17T15:31:56.451Z,97297.56
2023-02-17T15:32:58.120Z,97274.59
2023-02-17T15:34:01.013Z,97288.81
2023-02-17T15:35:02.565Z,97293.38
2023-02-17T15:36:04.516Z,97296.09
2023-02-17T15:37:05.914Z,97297.97
2023-02-17T15:38:12.575Z,97297.97
2023-02-17T15:39:18.853Z,97301.50
2023-02-17T15:40:23.609Z,97303.63
2023-02-17T15:41:27.232Z,97308.06
2023-02-17T15:42:28.749Z,97307.16
2023-02-17T15:44:46.347Z,97300.88
2023-02-17T15:45:48.107Z,97309.69
2023-02-17T15:46:52.041Z,97302.84
2023-02-17T15:48:03.164Z,97302.34
